Terminal Aerodrome Forecast
Issued by NWS Paducah, KY

Home | Current Version | Previous Version | Text Only | Print | Product List | Glossary Off
Versions: 1 2 3 4 5 6 7 8 9 10 11 12 13 14 15 16 17 18

000
FTUS43 KPAH 301720
TAFEVV
TAF
KEVV 301720Z 3018/0118 24008KT P6SM BKN050
     FM010100 VRB03KT P6SM VCTS SCT050CB
     FM010400 00000KT P6SM BKN150
     FM011200 28004KT P6SM OVC080 PROB30 0114/0118 4SM SHRA BR=

USA.gov is the U.S. government's official web portal to all federal, state and local government web resources and services.